Terminal Aerodrome Forecast
Issued by NWS Missoula, MT

Home | Current Version | Previous Version | Text Only | Print | Product List | Glossary On
Versions: 1 2 3 4 5 6 7 8 9 10 11 12
000
FTUS45 KMSO 021756
TAFGPI
TAF
KGPI 021756Z 0218/0318 VRB04KT P6SM SCT050 BKN090
     FM022100 20012KT P6SM BKN090
     FM030200 VRB06KT P6SM BKN120
     FM030900 24012KT P6SM VCSH BKN060=

USA.gov is the U.S. government's official web portal to all federal, state and local government web resources and services.